createdAt,value
2019-03-12T00:00:33.699Z,4.93
2019-03-12T00:02:59.940Z,7.23
2019-03-12T00:05:26.062Z,5.27
2019-03-12T00:07:52.291Z,4.83
2019-03-12T00:10:18.419Z,9.20
2019-03-12T00:12:44.672Z,7.93
2019-03-12T00:15:10.751Z,4.73
2019-03-12T00:17:36.887Z,7.00
2019-03-12T00:20:04.594Z,7.63
2019-03-12T00:22:30.741Z,5.20
2019-03-12T00:24:59.775Z,8.87
2019-03-12T00:27:25.966Z,9.20
2019-03-12T00:29:52.094Z,10.60
2019-03-12T00:32:18.245Z,7.17
2019-03-12T00:34:44.371Z,14.67
2019-03-12T00:37:10.491Z,8.60
2019-03-12T00:39:36.632Z,9.97
2019-03-12T00:42:02.946Z,9.20
2019-03-12T00:44:29.174Z,7.20
2019-03-12T00:46:55.263Z,12.60
2019-03-12T00:49:21.436Z,11.50
2019-03-12T00:51:47.665Z,11.30
2019-03-12T00:54:13.788Z,10.90
2019-03-12T00:56:41.524Z,10.50
2019-03-12T00:59:07.683Z,10.63
2019-03-12T01:01:33.779Z,7.27
2019-03-12T01:04:03.198Z,8.30
2019-03-12T01:06:29.479Z,8.80
2019-03-12T01:08:55.656Z,10.07
2019-03-12T01:11:21.786Z,5.87
2019-03-12T01:13:47.927Z,8.20
2019-03-12T01:16:14.112Z,8.17
2019-03-12T01:18:40.309Z,6.87
2019-03-12T01:21:06.432Z,8.33
2019-03-12T01:23:37.478Z,11.40
2019-03-12T01:26:03.860Z,8.23
2019-03-12T01:28:29.951Z,6.50
2019-03-12T01:30:56.079Z,7.33
2019-03-12T01:33:22.181Z,9.33
2019-03-12T01:35:48.317Z,10.57
2019-03-12T01:38:16.440Z,8.30
2019-03-12T01:40:42.572Z,7.70
2019-03-12T01:43:10.882Z,5.13
2019-03-12T01:45:37.009Z,6.90
2019-03-12T01:48:03.308Z,10.00
2019-03-12T01:50:29.560Z,8.10
2019-03-12T01:52:55.736Z,6.03
2019-03-12T01:55:22.002Z,7.00
2019-03-12T01:57:48.207Z,6.77
2019-03-12T02:00:18.662Z,10.73
2019-03-12T02:02:47.345Z,9.00
2019-03-12T02:05:13.559Z,6.70
2019-03-12T02:07:39.922Z,6.53
2019-03-12T02:10:09.060Z,10.70
2019-03-12T02:12:37.295Z,6.20
2019-03-12T02:15:08.560Z,7.97
2019-03-12T02:17:34.793Z,7.77
2019-03-12T02:20:00.942Z,8.43
2019-03-12T02:22:27.087Z,8.17
2019-03-12T02:24:55.125Z,7.17
2019-03-12T02:27:21.424Z,9.43
2019-03-12T02:29:48.822Z,9.33
2019-03-12T02:32:15.151Z,8.37
2019-03-12T02:34:41.372Z,9.50
2019-03-12T02:37:07.539Z,7.00
2019-03-12T02:39:36.776Z,7.23
2019-03-12T02:42:03.010Z,11.23
2019-03-12T02:44:31.483Z,7.60
2019-03-12T02:46:57.590Z,8.60
2019-03-12T02:49:23.717Z,9.63
2019-03-12T02:51:49.932Z,11.87
2019-03-12T02:54:16.209Z,14.37
2019-03-12T02:56:42.406Z,11.53
2019-03-12T02:59:08.778Z,10.13
2019-03-12T03:01:34.957Z,11.97
2019-03-12T03:04:01.188Z,12.03
2019-03-12T03:06:34.967Z,10.83
2019-03-12T03:09:01.109Z,13.87
2019-03-12T03:11:27.339Z,12.07
2019-03-12T03:13:53.490Z,16.43
2019-03-12T03:16:23.693Z,12.07
2019-03-12T03:18:47.726Z,13.10
2019-03-12T03:21:13.955Z,15.47
2019-03-12T03:23:40.125Z,13.10
2019-03-12T03:26:06.306Z,11.63
2019-03-12T03:28:32.420Z,12.43
2019-03-12T03:30:58.612Z,18.40
2019-03-12T03:33:24.711Z,11.67
2019-03-12T03:35:50.845Z,13.67
2019-03-12T03:38:16.971Z,14.10
2019-03-12T03:40:43.118Z,15.67
2019-03-12T03:43:09.344Z,12.17
2019-03-12T03:45:36.818Z,11.80
2019-03-12T03:48:03.313Z,12.13
2019-03-12T03:50:29.617Z,17.40
2019-03-12T03:52:55.731Z,14.10
2019-03-12T03:55:21.965Z,11.60
2019-03-12T03:57:48.175Z,11.60
2019-03-12T04:00:19.042Z,14.53
2019-03-12T04:02:46.721Z,10.07
2019-03-12T04:05:13.093Z,9.40
2019-03-12T04:07:39.332Z,18.63
2019-03-12T04:10:08.160Z,12.00
2019-03-12T04:12:34.376Z,14.33
2019-03-12T04:15:00.582Z,11.87
2019-03-12T04:17:26.693Z,13.80
2019-03-12T04:19:54.744Z,13.43
2019-03-12T04:22:20.868Z,10.80
2019-03-12T04:24:47.080Z,11.03
2019-03-12T04:27:13.226Z,11.37
2019-03-12T04:29:39.445Z,12.23
2019-03-12T04:32:06.890Z,10.70
2019-03-12T04:34:32.987Z,9.93
2019-03-12T04:37:01.010Z,10.63
2019-03-12T04:39:27.202Z,14.33
2019-03-12T04:41:53.428Z,12.97
2019-03-12T04:44:19.532Z,14.37
2019-03-12T04:46:48.703Z,11.03
2019-03-12T04:49:14.805Z,12.97
2019-03-12T04:51:41.049Z,10.07
2019-03-12T04:54:07.263Z,10.23
2019-03-12T04:56:33.404Z,7.77
2019-03-12T04:58:59.513Z,10.70
2019-03-12T05:01:25.716Z,9.93
2019-03-12T05:03:51.975Z,13.47
2019-03-12T05:06:19.773Z,10.13
2019-03-12T05:08:46.113Z,12.87
2019-03-12T05:11:12.363Z,12.13
2019-03-12T05:13:38.508Z,10.77
2019-03-12T05:16:04.603Z,10.60
2019-03-12T05:18:30.759Z,7.13
2019-03-12T05:20:56.947Z,7.87
2019-03-12T05:23:23.108Z,7.70
2019-03-12T05:25:49.187Z,9.60
2019-03-12T05:28:15.341Z,7.87
2019-03-12T05:30:41.440Z,8.63
2019-03-12T05:33:07.679Z,9.27
2019-03-12T05:35:33.777Z,7.77
2019-03-12T05:37:59.915Z,8.10
2019-03-12T05:40:26.033Z,7.87
2019-03-12T05:42:52.253Z,7.13
2019-03-12T05:45:18.577Z,5.10
2019-03-12T05:47:44.785Z,6.33
2019-03-12T05:50:17.901Z,6.53
2019-03-12T05:52:44.110Z,7.83
2019-03-12T05:55:13.052Z,8.20
2019-03-12T05:57:41.082Z,6.27
2019-03-12T06:00:13.397Z,6.17
2019-03-12T06:02:39.499Z,7.03
2019-03-12T06:05:08.432Z,7.87
2019-03-12T06:07:34.540Z,9.10
2019-03-12T06:10:00.940Z,7.07
2019-03-12T06:12:27.052Z,10.63
2019-03-12T06:14:53.182Z,5.87
2019-03-12T06:17:19.296Z,7.73
2019-03-12T06:19:45.451Z,9.40
2019-03-12T06:22:12.309Z,9.87
2019-03-12T06:24:38.518Z,6.97
2019-03-12T06:27:04.643Z,7.87
2019-03-12T06:29:30.859Z,9.40
2019-03-12T06:32:11.233Z,9.80
2019-03-12T06:34:39.244Z,11.27
2019-03-12T06:37:07.289Z,11.20
2019-03-12T06:39:35.419Z,9.50
2019-03-12T06:42:03.461Z,7.63
2019-03-12T06:44:31.526Z,10.33
2019-03-12T06:47:18.738Z,7.83
2019-03-12T06:49:53.055Z,11.90
2019-03-12T06:52:24.052Z,7.70
2019-03-12T06:54:54.838Z,9.70
2019-03-12T06:57:22.893Z,9.63
2019-03-12T06:59:50.904Z,10.07
2019-03-12T07:02:31.294Z,9.00
2019-03-12T07:05:04.337Z,12.00
2019-03-12T07:07:41.715Z,10.10
2019-03-12T07:10:26.643Z,7.67
2019-03-12T07:13:06.615Z,9.13
2019-03-12T07:15:37.350Z,10.63
2019-03-12T07:18:05.493Z,8.73
2019-03-12T07:20:33.634Z,7.40
2019-03-12T07:23:01.652Z,7.33
2019-03-12T07:25:29.691Z,9.80
2019-03-12T07:28:12.119Z,9.40
2019-03-12T07:30:49.379Z,8.93
2019-03-12T07:33:17.470Z,7.90
2019-03-12T07:35:45.604Z,8.60
2019-03-12T07:38:16.754Z,7.50
2019-03-12T07:41:01.571Z,8.20
2019-03-12T07:43:32.592Z,10.40
2019-03-12T07:46:00.722Z,7.53
2019-03-12T07:48:45.751Z,8.47
2019-03-12T07:51:19.769Z,9.10
2019-03-12T07:53:59.337Z,10.17
2019-03-12T07:56:26.729Z,7.90
2019-03-12T07:58:57.502Z,7.57
2019-03-12T08:01:36.582Z,7.33
2019-03-12T08:04:11.090Z,6.30
2019-03-12T08:06:48.084Z,9.70
2019-03-12T08:09:19.061Z,10.30
2019-03-12T08:11:49.859Z,8.47
2019-03-12T08:14:20.731Z,11.00
2019-03-12T08:16:54.982Z,9.63
2019-03-12T08:19:23.039Z,5.53
2019-03-12T08:21:53.000Z,7.03
2019-03-12T08:24:21.155Z,9.77
2019-03-12T08:26:51.159Z,11.50
2019-03-12T08:29:25.131Z,10.27
2019-03-12T08:32:05.136Z,8.27
2019-03-12T08:34:49.880Z,8.60
2019-03-12T08:37:29.908Z,6.60
2019-03-12T08:39:57.958Z,9.10
2019-03-12T08:42:28.727Z,8.80
2019-03-12T08:45:02.433Z,9.27
2019-03-12T08:47:47.508Z,5.23
2019-03-12T08:50:21.331Z,8.90
2019-03-12T08:52:49.372Z,6.43
2019-03-12T08:55:26.752Z,5.20
2019-03-12T08:57:54.843Z,7.17
2019-03-12T09:00:25.625Z,8.60
2019-03-12T09:02:56.811Z,8.13
2019-03-12T09:05:24.951Z,5.77
2019-03-12T09:07:55.772Z,5.80
2019-03-12T09:10:38.954Z,5.53
2019-03-12T09:13:24.981Z,9.17
2019-03-12T09:15:55.988Z,6.30
2019-03-12T09:18:24.015Z,6.87
2019-03-12T09:20:52.067Z,10.90
2019-03-12T09:23:36.785Z,8.27
2019-03-12T09:26:14.160Z,9.60
2019-03-12T09:28:59.013Z,7.87
2019-03-12T09:31:38.998Z,8.40
2019-03-12T09:34:25.293Z,6.27
2019-03-12T09:37:02.923Z,5.83
2019-03-12T09:39:31.116Z,8.80
2019-03-12T09:41:59.273Z,10.10
2019-03-12T09:44:44.194Z,7.13
2019-03-12T09:47:18.115Z,8.80
2019-03-12T09:49:46.241Z,6.47
2019-03-12T09:52:17.354Z,7.13
2019-03-12T09:54:54.575Z,5.73
2019-03-12T09:57:22.634Z,8.93
2019-03-12T09:59:53.466Z,7.27
2019-03-12T10:02:27.248Z,6.00
2019-03-12T10:05:01.102Z,7.50
2019-03-12T10:07:41.254Z,7.87
2019-03-12T10:10:13.373Z,9.37
2019-03-12T10:12:50.656Z,9.30
2019-03-12T10:15:21.429Z,10.83
2019-03-12T10:17:49.609Z,6.50
2019-03-12T10:20:33.983Z,10.03
2019-03-12T10:23:04.821Z,6.63
2019-03-12T10:25:32.887Z,9.77
2019-03-12T10:28:01.063Z,5.63
2019-03-12T10:30:29.156Z,12.13
2019-03-12T10:33:03.533Z,11.17
2019-03-12T10:35:31.730Z,6.67
2019-03-12T10:38:29.478Z,5.63
2019-03-12T10:41:00.563Z,6.40
2019-03-12T10:43:28.580Z,5.20
2019-03-12T10:45:59.353Z,8.40
2019-03-12T10:48:25.672Z,7.20
2019-03-12T10:50:51.978Z,8.80
2019-03-12T10:53:18.206Z,10.17
2019-03-12T10:55:44.440Z,6.43
2019-03-12T10:58:10.599Z,8.07
2019-03-12T11:00:37.033Z,9.20
2019-03-12T11:03:03.340Z,10.70
2019-03-12T11:05:29.570Z,8.57
2019-03-12T11:07:55.675Z,6.73
2019-03-12T11:10:22.024Z,8.23
2019-03-12T11:12:48.355Z,9.23
2019-03-12T11:15:15.249Z,10.27
2019-03-12T11:17:49.554Z,9.63
2019-03-12T11:20:19.122Z,8.23
2019-03-12T11:22:45.498Z,14.33
2019-03-12T11:25:11.794Z,8.73
2019-03-12T11:27:38.164Z,11.43
2019-03-12T11:30:11.174Z,10.70
2019-03-12T11:32:37.318Z,10.03
2019-03-12T11:35:05.521Z,8.67
2019-03-12T11:37:31.651Z,5.90
2019-03-12T11:39:57.744Z,8.10
2019-03-12T11:42:23.985Z,10.27
2019-03-12T11:44:50.197Z,12.20
2019-03-12T11:47:16.398Z,11.40
2019-03-12T11:49:42.607Z,8.50
2019-03-12T11:52:09.003Z,9.03
2019-03-12T11:54:35.148Z,10.83
2019-03-12T11:57:01.326Z,9.77
2019-03-12T11:59:27.577Z,11.77
2019-03-12T12:01:54.037Z,7.80
2019-03-12T12:04:20.335Z,7.97
2019-03-12T12:06:46.578Z,8.53
2019-03-12T12:09:13.459Z,7.33
2019-03-12T12:11:39.942Z,10.47
2019-03-12T12:14:06.166Z,10.30
2019-03-12T12:16:32.251Z,9.70
2019-03-12T12:18:58.525Z,8.60
2019-03-12T12:21:24.672Z,8.70
2019-03-12T12:23:50.800Z,9.07
2019-03-12T12:26:17.114Z,7.30
2019-03-12T12:28:43.251Z,5.70
2019-03-12T12:31:09.561Z,10.57
2019-03-12T12:33:35.903Z,9.73
2019-03-12T12:36:03.946Z,11.30
2019-03-12T12:38:30.094Z,9.93
2019-03-12T12:40:56.273Z,7.47
2019-03-12T12:43:22.409Z,8.20
2019-03-12T12:45:48.741Z,9.47
2019-03-12T12:48:14.983Z,8.43
2019-03-12T12:50:43.095Z,8.63
2019-03-12T12:53:09.423Z,5.13
2019-03-12T12:55:35.663Z,9.60
2019-03-12T12:58:01.863Z,9.40
2019-03-12T13:00:28.402Z,8.43
2019-03-12T13:02:54.624Z,6.57
2019-03-12T13:05:20.995Z,5.83
2019-03-12T13:07:47.173Z,8.33
2019-03-12T13:10:24.182Z,8.67
2019-03-12T13:12:50.618Z,5.70
2019-03-12T13:15:16.962Z,6.27
2019-03-12T13:17:43.267Z,8.43
2019-03-12T13:20:09.598Z,5.07
2019-03-12T13:22:35.910Z,7.27
2019-03-12T13:25:04.684Z,10.30
2019-03-12T13:27:41.729Z,9.83
2019-03-12T13:29:59.107Z,6.60
2019-03-12T13:32:25.351Z,9.30
2019-03-12T13:34:51.576Z,8.63
2019-03-12T13:37:17.811Z,5.80
2019-03-12T13:39:44.079Z,9.07
2019-03-12T13:42:10.367Z,10.60
2019-03-12T13:44:36.584Z,10.07
2019-03-12T13:47:03.405Z,9.03
2019-03-12T13:49:29.608Z,12.27
2019-03-12T13:51:55.847Z,4.73
2019-03-12T13:54:22.265Z,29.00
2019-03-12T13:56:48.664Z,11.10
2019-03-12T13:59:14.934Z,11.17
2019-03-12T14:01:41.155Z,17.23
2019-03-12T14:04:10.684Z,12.87
2019-03-12T14:06:37.583Z,5.57
2019-03-12T14:09:03.933Z,6.00
2019-03-12T14:11:30.197Z,7.27
2019-03-12T14:13:56.462Z,12.70
2019-03-12T14:16:22.859Z,9.53
2019-03-12T14:18:49.065Z,9.23
2019-03-12T14:21:15.275Z,11.47
2019-03-12T14:23:54.323Z,9.87
2019-03-12T14:26:20.538Z,7.00
2019-03-12T14:28:46.753Z,4.37
2019-03-12T14:31:13.108Z,9.17
2019-03-12T14:33:39.435Z,7.37
2019-03-12T14:36:05.544Z,9.87
2019-03-12T14:38:31.870Z,6.50
2019-03-12T14:40:58.203Z,4.43
2019-03-12T14:43:26.341Z,7.37
2019-03-12T14:45:52.760Z,15.13
2019-03-12T14:48:42.615Z,5.03
2019-03-12T14:51:21.677Z,5.93
2019-03-12T14:53:51.625Z,6.97
2019-03-12T14:56:17.959Z,9.40
2019-03-12T14:58:44.076Z,8.03
2019-03-12T15:01:10.421Z,6.67
2019-03-12T15:03:36.632Z,8.23
2019-03-12T15:06:03.076Z,6.73
2019-03-12T15:08:29.186Z,7.43
2019-03-12T15:10:55.557Z,7.10
2019-03-12T15:13:21.858Z,7.07
2019-03-12T15:15:48.300Z,8.50
2019-03-12T15:18:14.427Z,5.17
2019-03-12T15:20:40.872Z,6.33
2019-03-12T15:23:07.072Z,4.60
2019-03-12T15:25:33.217Z,5.17
2019-03-12T15:27:59.670Z,4.40
2019-03-12T15:30:27.180Z,7.30
2019-03-12T15:32:53.401Z,4.43
2019-03-12T15:35:19.755Z,5.10
2019-03-12T15:37:46.939Z,5.73
2019-03-12T15:40:13.420Z,5.67
2019-03-12T15:42:39.812Z,6.00
2019-03-12T15:45:08.540Z,8.43
2019-03-12T15:47:38.824Z,6.53
2019-03-12T15:50:09.508Z,7.00
2019-03-12T15:52:33.918Z,6.70
2019-03-12T15:55:00.115Z,9.50
2019-03-12T15:57:26.246Z,5.57
2019-03-12T15:59:52.355Z,5.50
2019-03-12T16:02:18.624Z,5.70
2019-03-12T16:04:44.939Z,4.67
2019-03-12T16:07:11.061Z,5.57
2019-03-12T16:09:37.169Z,6.13
2019-03-12T16:12:03.642Z,5.20
2019-03-12T16:14:29.998Z,6.20
2019-03-12T16:16:56.258Z,4.93
2019-03-12T16:19:22.388Z,5.50
2019-03-12T16:21:48.552Z,3.63
2019-03-12T16:24:15.043Z,7.10
2019-03-12T16:26:41.247Z,3.67
2019-03-12T16:29:07.393Z,6.33
2019-03-12T16:31:33.559Z,5.07
2019-03-12T16:33:59.979Z,8.03
2019-03-12T16:36:26.201Z,4.07
2019-03-12T16:38:52.539Z,5.13
2019-03-12T16:41:18.744Z,6.83
2019-03-12T16:43:45.044Z,5.67
2019-03-12T16:46:11.257Z,5.13
2019-03-12T16:48:38.681Z,6.83
2019-03-12T16:51:05.349Z,8.10
2019-03-12T16:53:31.698Z,6.27
2019-03-12T16:55:57.923Z,8.60
2019-03-12T16:58:24.067Z,6.43
2019-03-12T17:00:50.288Z,5.23
2019-03-12T17:03:16.641Z,7.73
2019-03-12T17:05:42.952Z,6.00
2019-03-12T17:08:09.219Z,5.97
2019-03-12T17:10:35.448Z,6.83
2019-03-12T17:13:01.578Z,3.77
2019-03-12T17:15:28.817Z,3.80
2019-03-12T17:17:54.950Z,3.50
2019-03-12T17:20:21.276Z,4.70
2019-03-12T17:22:47.529Z,6.30
2019-03-12T17:25:13.962Z,5.20
2019-03-12T17:27:40.295Z,7.00
2019-03-12T17:30:15.329Z,10.87
2019-03-12T17:32:41.638Z,6.73
2019-03-12T17:35:10.777Z,12.80
2019-03-12T17:37:37.088Z,4.63
2019-03-12T17:40:12.576Z,6.13
2019-03-12T17:42:38.819Z,5.30
2019-03-12T17:45:07.604Z,3.03
2019-03-12T17:47:33.861Z,3.17
2019-03-12T17:50:00.004Z,3.83
2019-03-12T17:52:26.230Z,6.90
2019-03-12T17:54:52.452Z,5.23
2019-03-12T17:57:18.919Z,6.07
2019-03-12T17:59:47.054Z,6.87
2019-03-12T18:02:13.361Z,5.10
2019-03-12T18:04:47.279Z,4.40
2019-03-12T18:07:13.452Z,4.80
2019-03-12T18:09:41.547Z,2.93
2019-03-12T18:12:07.924Z,3.90
2019-03-12T18:14:34.013Z,3.17
2019-03-12T18:17:00.389Z,4.77
2019-03-12T18:19:26.622Z,5.53
2019-03-12T18:21:52.839Z,3.20
2019-03-12T18:24:19.101Z,1.83
2019-03-12T18:26:45.327Z,4.63
2019-03-12T18:29:11.547Z,3.43
2019-03-12T18:31:39.547Z,5.17
2019-03-12T18:34:05.665Z,3.47
2019-03-12T18:36:31.975Z,4.27
2019-03-12T18:39:02.726Z,6.10
2019-03-12T18:41:26.237Z,6.23
2019-03-12T18:43:52.401Z,13.43
2019-03-12T18:46:18.634Z,5.93
2019-03-12T18:48:44.907Z,3.40
2019-03-12T18:51:11.110Z,13.73
2019-03-12T18:53:37.451Z,10.33
2019-03-12T18:56:03.808Z,4.67
2019-03-12T18:58:30.075Z,8.80
2019-03-12T19:00:58.995Z,4.47
2019-03-12T19:03:25.246Z,23.17
2019-03-12T19:05:51.368Z,32.03
2019-03-12T19:08:17.651Z,23.70
2019-03-12T19:10:44.079Z,73.97
2019-03-12T19:13:10.461Z,53.03
2019-03-12T19:15:36.855Z,7.07
2019-03-12T19:18:03.206Z,4.80
2019-03-12T19:20:32.752Z,3.20
2019-03-12T19:22:57.574Z,3.73
2019-03-12T19:25:30.434Z,3.03
2019-03-12T19:28:00.074Z,4.50
2019-03-12T19:30:25.061Z,3.63
2019-03-12T19:32:53.265Z,9.53
2019-03-12T19:35:27.804Z,3.70
2019-03-12T19:37:54.529Z,3.53
2019-03-12T19:40:33.273Z,4.27
2019-03-12T19:42:59.472Z,3.00
2019-03-12T19:45:25.658Z,5.27
2019-03-12T19:47:51.885Z,3.57
2019-03-12T19:50:19.537Z,4.13
2019-03-12T19:52:45.934Z,5.47
2019-03-12T19:55:15.893Z,4.80
2019-03-12T19:57:42.121Z,5.23
2019-03-12T20:00:14.541Z,10.63
2019-03-12T20:02:41.568Z,8.43
2019-03-12T20:05:09.757Z,6.83
2019-03-12T20:07:36.092Z,5.50
2019-03-12T20:10:42.802Z,5.57
2019-03-12T20:13:44.925Z,5.77
2019-03-12T20:16:21.222Z,10.70
2019-03-12T20:18:51.141Z,3.10
2019-03-12T20:21:37.941Z,4.13
2019-03-12T20:24:38.310Z,4.63
2019-03-12T20:27:23.599Z,4.03
2019-03-12T20:29:53.644Z,3.67
2019-03-12T20:32:24.074Z,5.37
2019-03-12T20:35:09.299Z,4.20
2019-03-12T20:37:57.140Z,5.27
2019-03-12T20:40:30.079Z,4.03
2019-03-12T20:43:30.668Z,3.73
2019-03-12T20:46:18.435Z,3.70
2019-03-12T20:49:11.234Z,3.10
2019-03-12T20:52:05.012Z,4.47
2019-03-12T20:55:08.516Z,3.70
2019-03-12T20:58:04.617Z,2.63
2019-03-12T21:01:08.238Z,5.97
2019-03-12T21:04:13.088Z,1.47
2019-03-12T21:06:48.540Z,3.40
2019-03-12T21:09:21.291Z,3.20
2019-03-12T21:12:05.827Z,3.23
2019-03-12T21:15:09.346Z,2.93
2019-03-12T21:18:00.395Z,3.40
2019-03-12T21:20:47.212Z,5.07
2019-03-12T21:23:42.904Z,2.97
2019-03-12T21:26:29.356Z,2.47
2019-03-12T21:29:02.411Z,3.47
2019-03-12T21:31:30.691Z,2.90
2019-03-12T21:33:58.096Z,3.93
2019-03-12T21:36:24.391Z,3.70
2019-03-12T21:38:50.724Z,2.13
2019-03-12T21:41:17.149Z,5.37
2019-03-12T21:43:43.416Z,3.03
2019-03-12T21:46:09.699Z,4.73
2019-03-12T21:48:35.978Z,5.20
2019-03-12T21:51:05.148Z,4.00
2019-03-12T21:53:31.345Z,4.40
2019-03-12T21:55:57.792Z,4.13
2019-03-12T21:58:24.079Z,5.57
2019-03-12T22:00:50.319Z,2.00
2019-03-12T22:03:16.708Z,3.33
2019-03-12T22:05:43.198Z,2.53
2019-03-12T22:08:09.398Z,2.93
2019-03-12T22:10:35.530Z,3.77
2019-03-12T22:13:01.677Z,2.53
2019-03-12T22:15:29.784Z,3.87
2019-03-12T22:17:56.034Z,5.13
2019-03-12T22:20:22.177Z,3.17
2019-03-12T22:23:08.711Z,3.67
2019-03-12T22:25:34.863Z,1.57
2019-03-12T22:28:01.053Z,3.67
2019-03-12T22:30:28.086Z,3.93
2019-03-12T22:32:54.311Z,2.90
2019-03-12T22:35:20.520Z,3.47
2019-03-12T22:37:48.572Z,2.00
2019-03-12T22:40:14.853Z,4.57
2019-03-12T22:42:40.983Z,4.63
2019-03-12T22:45:08.894Z,3.03
2019-03-12T22:47:35.049Z,4.30
2019-03-12T22:50:01.439Z,2.20
2019-03-12T22:52:27.872Z,3.33
2019-03-12T22:54:57.027Z,2.27
2019-03-12T22:57:23.257Z,1.40
2019-03-12T22:59:49.355Z,1.57
2019-03-12T23:02:15.698Z,2.20
2019-03-12T23:04:41.837Z,1.57
2019-03-12T23:07:08.168Z,0.70
2019-03-12T23:09:34.376Z,1.53
2019-03-12T23:12:00.682Z,0.87
2019-03-12T23:14:26.999Z,0.50
2019-03-12T23:16:53.243Z,0.80
2019-03-12T23:19:19.476Z,0.60
2019-03-12T23:21:45.779Z,0.50
2019-03-12T23:24:12.070Z,0.43
2019-03-12T23:26:38.376Z,0.40
2019-03-12T23:29:04.635Z,0.60
2019-03-12T23:31:31.043Z,0.70
2019-03-12T23:33:57.280Z,1.13
2019-03-12T23:36:23.382Z,0.70
2019-03-12T23:38:49.532Z,1.00
2019-03-12T23:41:15.753Z,1.00
2019-03-12T23:43:42.092Z,0.90
2019-03-12T23:46:08.441Z,1.03
2019-03-12T23:48:34.752Z,1.33
2019-03-12T23:51:00.955Z,1.57
2019-03-12T23:53:27.173Z,2.30
2019-03-12T23:55:53.873Z,2.53
2019-03-12T23:58:23.435Z,3.17
